createdAt,value
2023-03-20T00:02:05.841Z,2.85
2023-03-20T00:17:05.837Z,2.60
2023-03-20T00:31:05.855Z,2.60
2023-03-20T00:45:05.899Z,2.35
2023-03-20T00:59:06.033Z,2.20
2023-03-20T01:13:06.021Z,2.40
2023-03-20T01:27:06.041Z,2.30
2023-03-20T01:41:05.946Z,2.20
2023-03-20T01:55:05.958Z,2.40
2023-03-20T02:09:05.985Z,2.30
2023-03-20T02:23:05.972Z,2.30
2023-03-20T02:37:06.124Z,2.20
2023-03-20T02:51:06.055Z,2.30
2023-03-20T03:05:06.154Z,2.40
2023-03-20T03:19:06.031Z,2.70
2023-03-20T03:33:06.064Z,2.60
2023-03-20T03:47:06.049Z,2.60
2023-03-20T04:01:06.069Z,2.50
2023-03-20T04:15:06.082Z,2.60
2023-03-20T04:29:06.097Z,2.40
2023-03-20T04:43:06.112Z,2.60
2023-03-20T04:57:06.126Z,2.40
2023-03-20T05:11:06.127Z,2.30
2023-03-20T05:26:06.158Z,2.70
2023-03-20T05:41:06.161Z,2.50
2023-03-20T05:56:06.183Z,2.60
2023-03-20T06:12:06.199Z,2.80
2023-03-20T06:27:06.200Z,4.10
2023-03-20T06:42:06.246Z,3.70
2023-03-20T06:57:07.514Z,7.30
2023-03-20T07:12:06.265Z,6.80
2023-03-20T07:27:06.279Z,6.50
2023-03-20T07:42:06.290Z,6.50
2023-03-20T07:56:06.310Z,6.30
2023-03-20T08:10:06.429Z,6.20
2023-03-20T08:24:06.319Z,6.30
2023-03-20T08:38:06.326Z,6.10
2023-03-20T08:52:06.359Z,5.90
2023-03-20T09:06:06.936Z,5.60
2023-03-20T09:20:06.386Z,5.30
2023-03-20T09:34:06.429Z,5.80
2023-03-20T09:48:06.516Z,5.80
2023-03-20T10:02:06.403Z,4.90
2023-03-20T10:16:06.482Z,4.70
2023-03-20T10:30:06.420Z,4.70
2023-03-20T10:44:06.450Z,4.40
2023-03-20T10:58:06.451Z,3.80
2023-03-20T11:12:06.461Z,3.70
2023-03-20T11:26:06.483Z,3.50
2023-03-20T11:40:06.621Z,3.40
2023-03-20T11:55:06.622Z,3.40
2023-03-20T12:10:06.687Z,3.50
2023-03-20T12:25:06.662Z,3.50
2023-03-20T12:40:06.706Z,3.50
2023-03-20T12:55:06.711Z,3.00
2023-03-20T13:10:06.582Z,3.05
2023-03-20T13:25:06.613Z,4.70
2023-03-20T13:40:06.633Z,3.30
2023-03-20T13:55:06.643Z,3.00
2023-03-20T14:10:06.652Z,3.70
2023-03-20T14:25:06.695Z,2.70
2023-03-20T14:40:06.802Z,2.70
2023-03-20T14:55:06.656Z,2.90
2023-03-20T15:10:06.663Z,3.35
2023-03-20T15:25:06.727Z,2.80
2023-03-20T15:40:06.728Z,3.20
2023-03-20T15:55:06.737Z,3.00
2023-03-20T16:10:06.735Z,3.40
2023-03-20T16:25:06.776Z,2.60
2023-03-20T16:40:06.771Z,2.90
2023-03-20T16:55:06.936Z,2.80
2023-03-20T17:10:06.825Z,2.80
2023-03-20T17:25:06.824Z,2.65
2023-03-20T17:41:06.864Z,2.90
2023-03-20T17:56:06.862Z,2.40
2023-03-20T18:11:06.873Z,2.70
2023-03-20T18:25:06.883Z,2.70
2023-03-20T18:40:07.020Z,3.10
2023-03-20T18:54:06.898Z,2.90
2023-03-20T19:08:07.056Z,3.20
2023-03-20T19:22:10.710Z,3.50
2023-03-20T19:36:07.025Z,3.50
2023-03-20T19:50:07.338Z,4.40
2023-03-20T20:04:06.976Z,4.10
2023-03-20T20:18:07.019Z,6.90
2023-03-20T20:32:07.127Z,6.90
2023-03-20T20:46:07.182Z,7.20
2023-03-20T21:00:07.056Z,6.70
2023-03-20T21:14:07.044Z,6.80
2023-03-20T21:28:07.084Z,6.40
2023-03-20T21:42:07.069Z,6.60
2023-03-20T21:56:48.709Z,6.20
2023-03-20T22:10:51.241Z,6.00
2023-03-20T22:52:19.939Z,5.90
2023-03-20T23:06:07.145Z,5.60
2023-03-20T23:20:12.084Z,5.80
2023-03-20T23:34:07.164Z,5.30
2023-03-20T23:48:07.216Z,5.20
